createdAt,value
2022-12-08T00:00:22.968Z,3.72
2022-12-08T00:01:27.909Z,3.30
2022-12-08T00:02:30.155Z,3.33
2022-12-08T00:03:33.144Z,3.78
2022-12-08T00:04:55.452Z,4.15
2022-12-08T00:06:16.212Z,3.30
2022-12-08T00:07:36.890Z,3.25
2022-12-08T00:08:57.673Z,3.05
2022-12-08T00:09:59.841Z,3.70
2022-12-08T00:11:01.957Z,2.88
2022-12-08T00:12:05.342Z,3.08
2022-12-08T00:13:07.444Z,3.75
2022-12-08T00:14:09.538Z,3.80
2022-12-08T00:15:11.653Z,3.20
2022-12-08T00:16:13.831Z,3.83
2022-12-08T00:17:17.159Z,3.70
2022-12-08T00:18:19.254Z,3.28
2022-12-08T00:19:21.846Z,3.38
2022-12-08T00:20:23.983Z,3.58
2022-12-08T00:21:26.111Z,3.05
2022-12-08T00:22:29.174Z,3.35
2022-12-08T00:23:31.313Z,3.58
2022-12-08T00:24:36.113Z,3.22
2022-12-08T00:25:38.272Z,2.55
2022-12-08T00:26:40.485Z,3.08
2022-12-08T00:27:42.628Z,3.55
2022-12-08T00:28:44.745Z,3.10
2022-12-08T00:29:46.865Z,3.33
2022-12-08T00:30:48.964Z,3.20
2022-12-08T00:31:51.237Z,3.58
2022-12-08T00:32:53.447Z,3.13
2022-12-08T00:33:55.859Z,2.90
2022-12-08T00:34:57.932Z,3.25
2022-12-08T00:36:08.647Z,2.97
2022-12-08T00:37:10.804Z,3.08
2022-12-08T00:38:12.881Z,2.83
2022-12-08T00:39:16.130Z,2.63
2022-12-08T00:40:18.356Z,3.22
2022-12-08T00:41:41.478Z,3.15
2022-12-08T00:42:43.647Z,2.42
2022-12-08T00:43:45.743Z,3.33
2022-12-08T00:44:48.583Z,2.47
2022-12-08T00:45:50.708Z,3.08
2022-12-08T00:46:52.986Z,2.35
2022-12-08T00:47:55.079Z,2.47
2022-12-08T00:48:57.191Z,2.72
2022-12-08T00:49:59.278Z,1.85
2022-12-08T00:51:01.784Z,2.08
2022-12-08T00:52:04.119Z,2.38
2022-12-08T00:53:06.255Z,3.03
2022-12-08T00:54:09.282Z,2.20
2022-12-08T00:55:11.412Z,2.03
2022-12-08T00:56:13.546Z,1.98
2022-12-08T00:57:15.637Z,2.15
2022-12-08T00:58:17.764Z,2.00
2022-12-08T00:59:19.995Z,2.33
2022-12-08T01:00:22.566Z,2.20
2022-12-08T01:01:24.924Z,1.88
2022-12-08T01:02:27.079Z,1.88
2022-12-08T01:03:29.261Z,2.28
2022-12-08T01:04:31.465Z,1.95
2022-12-08T01:05:33.602Z,2.40
2022-12-08T01:06:36.143Z,2.13
2022-12-08T01:07:38.346Z,3.05
2022-12-08T01:08:41.407Z,1.70
2022-12-08T01:09:43.547Z,2.10
2022-12-08T01:10:45.663Z,2.33
2022-12-08T01:11:48.865Z,2.40
2022-12-08T01:12:51.015Z,2.58
2022-12-08T01:13:54.546Z,2.38
2022-12-08T01:15:00.772Z,2.53
2022-12-08T01:16:04.877Z,1.67
2022-12-08T01:17:07.125Z,2.25
2022-12-08T01:18:09.314Z,1.75
2022-12-08T01:19:13.553Z,2.63
2022-12-08T01:20:15.706Z,2.20
2022-12-08T01:21:18.385Z,2.63
2022-12-08T01:22:20.538Z,2.28
2022-12-08T01:23:22.689Z,2.63
2022-12-08T01:24:24.845Z,2.63
2022-12-08T01:25:27.073Z,2.78
2022-12-08T01:26:29.332Z,2.40
2022-12-08T01:27:31.503Z,2.33
2022-12-08T01:28:34.252Z,2.90
2022-12-08T01:29:36.538Z,3.63
2022-12-08T01:30:39.807Z,1.98
2022-12-08T01:31:42.086Z,2.28
2022-12-08T01:32:44.281Z,2.20
2022-12-08T01:33:47.825Z,2.35
2022-12-08T01:34:49.962Z,2.47
2022-12-08T01:35:52.664Z,2.88
2022-12-08T01:36:54.881Z,2.47
2022-12-08T01:37:56.998Z,2.30
2022-12-08T01:39:01.392Z,2.97
2022-12-08T01:40:04.211Z,3.10
2022-12-08T01:41:06.512Z,2.83
2022-12-08T01:42:21.745Z,2.83
2022-12-08T01:43:24.185Z,2.83
2022-12-08T01:44:26.254Z,2.45
2022-12-08T01:45:31.012Z,2.15
2022-12-08T01:46:34.293Z,2.28
2022-12-08T01:47:42.940Z,2.53
2022-12-08T01:48:45.185Z,2.88
2022-12-08T01:49:48.054Z,2.30
2022-12-08T01:50:51.805Z,2.55
2022-12-08T01:52:01.699Z,2.28
2022-12-08T01:53:12.072Z,2.22
2022-12-08T01:54:15.177Z,3.42
2022-12-08T01:55:26.025Z,2.00
2022-12-08T01:57:43.452Z,2.38
2022-12-08T01:58:49.497Z,2.85
2022-12-08T01:59:56.915Z,2.15
2022-12-08T02:00:59.099Z,2.25
2022-12-08T02:02:01.452Z,2.30
2022-12-08T02:03:09.157Z,2.22
2022-12-08T02:04:11.895Z,2.42
2022-12-08T02:05:14.185Z,2.65
2022-12-08T02:06:17.607Z,2.03
2022-12-08T02:07:20.807Z,2.35
2022-12-08T02:08:23.373Z,2.53
2022-12-08T02:09:25.600Z,2.58
2022-12-08T02:10:30.467Z,1.88
2022-12-08T02:11:32.613Z,2.67
2022-12-08T02:12:34.767Z,2.10
2022-12-08T02:13:37.185Z,2.15
2022-12-08T02:14:39.799Z,1.75
2022-12-08T02:16:04.745Z,2.15
2022-12-08T02:17:29.836Z,2.08
2022-12-08T02:19:07.930Z,2.17
2022-12-08T02:20:28.744Z,1.90
2022-12-08T02:21:43.057Z,1.90
2022-12-08T02:22:59.195Z,1.92
2022-12-08T02:24:23.093Z,2.90
2022-12-08T02:25:40.203Z,2.17
2022-12-08T02:26:51.659Z,1.95
2022-12-08T02:28:03.741Z,2.97
2022-12-08T02:29:15.125Z,1.85
2022-12-08T02:30:22.557Z,2.05
2022-12-08T02:31:33.728Z,2.13
2022-12-08T02:32:55.967Z,1.90
2022-12-08T02:34:10.934Z,1.90
2022-12-08T02:35:51.169Z,2.33
2022-12-08T02:37:02.337Z,1.98
2022-12-08T02:38:19.534Z,2.08
2022-12-08T02:39:48.951Z,2.13
2022-12-08T02:41:18.626Z,1.65
2022-12-08T02:42:39.286Z,1.60
2022-12-08T02:43:57.176Z,1.60
2022-12-08T02:45:25.785Z,1.50
2022-12-08T02:46:33.008Z,1.55
2022-12-08T02:47:36.135Z,2.55
2022-12-08T02:48:39.083Z,2.45
2022-12-08T02:49:41.416Z,1.67
2022-12-08T02:50:43.928Z,1.70
2022-12-08T02:51:46.116Z,1.88
2022-12-08T02:52:48.635Z,1.70
2022-12-08T02:53:51.122Z,1.90
2022-12-08T02:55:06.303Z,1.70
2022-12-08T02:56:30.003Z,1.73
2022-12-08T02:57:59.560Z,1.58
2022-12-08T02:59:13.614Z,1.60
2022-12-08T03:00:18.644Z,1.55
2022-12-08T03:01:39.402Z,2.15
2022-12-08T03:03:02.899Z,1.50
2022-12-08T03:04:36.664Z,1.90
2022-12-08T03:05:44.397Z,2.00
2022-12-08T03:07:19.673Z,1.27
2022-12-08T03:08:29.660Z,1.58
2022-12-08T03:09:52.750Z,1.40
2022-12-08T03:11:12.028Z,1.80
2022-12-08T03:12:23.455Z,2.30
2022-12-08T03:13:34.068Z,1.92
2022-12-08T03:14:38.964Z,1.73
2022-12-08T03:15:43.226Z,2.15
2022-12-08T03:16:51.869Z,1.80
2022-12-08T03:17:57.739Z,2.42
2022-12-08T03:19:17.462Z,1.48
2022-12-08T03:20:26.081Z,1.77
2022-12-08T03:21:29.841Z,1.63
2022-12-08T03:22:33.394Z,1.75
2022-12-08T03:23:38.677Z,2.20
2022-12-08T03:24:43.335Z,1.55
2022-12-08T03:26:10.883Z,1.50
2022-12-08T03:27:19.562Z,1.65
2022-12-08T03:28:22.018Z,1.80
2022-12-08T03:29:24.633Z,1.65
2022-12-08T03:30:30.394Z,1.23
2022-12-08T03:31:38.116Z,1.50
2022-12-08T03:32:47.823Z,1.13
2022-12-08T03:33:52.493Z,1.63
2022-12-08T03:34:57.082Z,1.73
2022-12-08T03:36:02.226Z,1.15
2022-12-08T03:37:04.450Z,1.55
2022-12-08T03:38:10.762Z,1.50
2022-12-08T03:39:12.934Z,1.77
2022-12-08T03:40:19.301Z,1.90
2022-12-08T03:41:22.774Z,1.70
2022-12-08T03:42:24.983Z,1.65
2022-12-08T03:43:27.115Z,1.60
2022-12-08T03:44:29.224Z,1.85
2022-12-08T03:45:31.465Z,1.38
2022-12-08T03:46:33.681Z,1.85
2022-12-08T03:47:35.850Z,2.00
2022-12-08T03:48:37.975Z,1.50
2022-12-08T03:49:40.800Z,1.55
2022-12-08T03:50:42.894Z,1.70
2022-12-08T03:51:45.102Z,1.17
2022-12-08T03:52:47.260Z,1.35
2022-12-08T03:53:49.529Z,1.35
2022-12-08T03:54:51.740Z,1.58
2022-12-08T03:55:54.558Z,1.60
2022-12-08T03:56:56.793Z,1.55
2022-12-08T03:57:59.023Z,1.58
2022-12-08T03:59:01.408Z,1.80
2022-12-08T04:00:06.634Z,1.63
2022-12-08T04:01:08.897Z,1.75
2022-12-08T04:02:11.032Z,1.50
2022-12-08T04:03:13.235Z,1.58
2022-12-08T04:04:15.381Z,2.25
2022-12-08T04:05:17.506Z,1.55
2022-12-08T04:06:20.505Z,1.90
2022-12-08T04:07:22.620Z,1.73
2022-12-08T04:08:24.791Z,1.75
2022-12-08T04:09:26.896Z,2.15
2022-12-08T04:10:28.985Z,1.77
2022-12-08T04:11:31.178Z,1.65
2022-12-08T04:12:33.337Z,1.45
2022-12-08T04:13:37.181Z,1.60
2022-12-08T04:14:39.338Z,1.90
2022-12-08T04:15:45.773Z,1.50
2022-12-08T04:16:47.923Z,1.80
2022-12-08T04:17:50.033Z,1.88
2022-12-08T04:18:52.437Z,1.45
2022-12-08T04:19:54.563Z,1.52
2022-12-08T04:20:56.713Z,1.48
2022-12-08T04:21:58.830Z,1.58
2022-12-08T04:23:00.937Z,2.05
2022-12-08T04:24:03.540Z,1.90
2022-12-08T04:25:06.242Z,1.38
2022-12-08T04:26:09.017Z,1.73
2022-12-08T04:27:11.127Z,1.42
2022-12-08T04:28:13.424Z,1.63
2022-12-08T04:29:15.940Z,1.73
2022-12-08T04:30:18.082Z,2.22
2022-12-08T04:31:20.242Z,2.13
2022-12-08T04:32:22.419Z,1.88
2022-12-08T04:33:24.579Z,1.77
2022-12-08T04:34:26.684Z,1.90
2022-12-08T04:35:29.104Z,1.65
2022-12-08T04:36:31.350Z,1.80
2022-12-08T04:37:33.498Z,1.60
2022-12-08T04:38:35.648Z,2.10
2022-12-08T04:39:37.817Z,1.42
2022-12-08T04:40:40.219Z,1.70
2022-12-08T04:41:42.312Z,2.03
2022-12-08T04:42:44.492Z,1.65
2022-12-08T04:43:46.755Z,1.48
2022-12-08T04:44:48.881Z,1.95
2022-12-08T04:45:50.996Z,2.20
2022-12-08T04:46:53.323Z,2.38
2022-12-08T04:47:55.549Z,2.38
2022-12-08T04:48:57.681Z,1.55
2022-12-08T04:49:59.895Z,2.50
2022-12-08T04:51:01.991Z,1.88
2022-12-08T04:52:04.198Z,2.05
2022-12-08T04:53:06.355Z,1.83
2022-12-08T04:54:08.462Z,1.95
2022-12-08T04:55:11.099Z,2.00
2022-12-08T04:56:14.875Z,2.17
2022-12-08T04:57:17.452Z,1.70
2022-12-08T04:58:20.086Z,1.80
2022-12-08T04:59:22.252Z,2.13
2022-12-08T05:00:24.686Z,1.92
2022-12-08T05:01:26.842Z,3.10
2022-12-08T05:02:29.158Z,2.20
2022-12-08T05:03:31.320Z,2.35
2022-12-08T05:04:33.474Z,2.25
2022-12-08T05:05:35.843Z,1.80
2022-12-08T05:06:38.061Z,2.25
2022-12-08T05:07:40.310Z,2.28
2022-12-08T05:08:43.256Z,2.50
2022-12-08T05:09:45.389Z,2.13
2022-12-08T05:10:47.543Z,2.63
2022-12-08T05:11:49.746Z,2.60
2022-12-08T05:12:51.847Z,2.80
2022-12-08T05:13:54.007Z,2.67
2022-12-08T05:14:56.107Z,2.80
2022-12-08T05:16:10.842Z,2.90
2022-12-08T05:17:13.067Z,3.22
2022-12-08T05:18:15.686Z,2.22
2022-12-08T05:19:17.920Z,2.00
2022-12-08T05:20:20.053Z,2.60
2022-12-08T05:21:22.209Z,2.17
2022-12-08T05:22:24.377Z,2.17
2022-12-08T05:23:27.395Z,2.40
2022-12-08T05:24:29.542Z,2.00
2022-12-08T05:25:31.696Z,2.20
2022-12-08T05:26:33.846Z,2.05
2022-12-08T05:27:36.135Z,2.35
2022-12-08T05:28:42.981Z,2.15
2022-12-08T05:29:45.640Z,2.38
2022-12-08T05:30:47.872Z,1.88
2022-12-08T05:31:50.037Z,2.03
2022-12-08T05:32:52.201Z,2.08
2022-12-08T05:33:57.374Z,1.75
2022-12-08T05:35:01.779Z,2.05
2022-12-08T05:36:04.074Z,2.30
2022-12-08T05:37:06.242Z,1.98
2022-12-08T05:38:08.791Z,2.15
2022-12-08T05:39:14.575Z,2.15
2022-12-08T05:40:16.674Z,3.33
2022-12-08T05:41:20.971Z,2.20
2022-12-08T05:42:24.965Z,2.38
2022-12-08T05:43:27.452Z,2.50
2022-12-08T05:44:29.677Z,1.88
2022-12-08T05:45:31.939Z,2.63
2022-12-08T05:46:34.476Z,2.58
2022-12-08T05:47:36.601Z,1.95
2022-12-08T05:48:39.166Z,2.42
2022-12-08T05:49:41.258Z,2.60
2022-12-08T05:50:50.800Z,2.75
2022-12-08T05:51:53.026Z,2.63
2022-12-08T05:52:55.198Z,2.70
2022-12-08T05:53:58.019Z,2.45
2022-12-08T05:55:00.280Z,3.30
2022-12-08T05:56:02.382Z,2.90
2022-12-08T05:57:04.580Z,2.63
2022-12-08T05:58:08.175Z,2.42
2022-12-08T05:59:10.467Z,2.58
2022-12-08T06:00:13.120Z,2.90
2022-12-08T06:01:22.260Z,2.70
2022-12-08T06:02:24.464Z,2.80
2022-12-08T06:03:26.743Z,2.05
2022-12-08T06:04:28.881Z,2.10
2022-12-08T06:05:33.086Z,2.50
2022-12-08T06:06:36.268Z,2.17
2022-12-08T06:07:38.714Z,2.05
2022-12-08T06:08:40.989Z,2.00
2022-12-08T06:09:43.479Z,2.17
2022-12-08T06:10:46.422Z,1.67
2022-12-08T06:11:48.708Z,1.70
2022-12-08T06:12:50.821Z,1.83
2022-12-08T06:13:53.742Z,1.55
2022-12-08T06:14:55.846Z,1.55
2022-12-08T06:16:04.600Z,1.70
2022-12-08T06:17:06.884Z,1.20
2022-12-08T06:18:10.894Z,1.55
2022-12-08T06:19:13.017Z,1.65
2022-12-08T06:20:15.309Z,1.85
2022-12-08T06:21:18.278Z,1.45
2022-12-08T06:22:20.555Z,1.60
2022-12-08T06:23:22.691Z,1.60
2022-12-08T06:24:24.825Z,1.30
2022-12-08T06:25:27.049Z,1.27
2022-12-08T06:26:29.180Z,1.50
2022-12-08T06:27:31.284Z,1.38
2022-12-08T06:28:33.660Z,1.42
2022-12-08T06:29:35.922Z,1.30
2022-12-08T06:30:38.059Z,0.90
2022-12-08T06:31:40.667Z,1.40
2022-12-08T06:32:43.124Z,1.30
2022-12-08T06:33:45.932Z,1.35
2022-12-08T06:34:48.022Z,1.33
2022-12-08T06:35:50.162Z,1.20
2022-12-08T06:36:52.392Z,1.10
2022-12-08T06:37:54.539Z,1.30
2022-12-08T06:38:57.000Z,1.13
2022-12-08T06:39:59.194Z,1.30
2022-12-08T06:41:01.417Z,1.30
2022-12-08T06:42:22.065Z,1.13
2022-12-08T06:43:25.334Z,1.15
2022-12-08T06:44:27.424Z,1.20
2022-12-08T06:45:29.611Z,1.83
2022-12-08T06:46:31.860Z,1.00
2022-12-08T06:47:34.128Z,1.00
2022-12-08T06:48:36.307Z,1.23
2022-12-08T06:49:38.490Z,1.02
2022-12-08T06:50:40.656Z,1.30
2022-12-08T06:51:42.732Z,1.08
2022-12-08T06:52:56.891Z,1.45
2022-12-08T06:54:03.037Z,1.45
2022-12-08T06:55:05.744Z,1.45
2022-12-08T06:56:08.249Z,1.35
2022-12-08T06:57:10.433Z,1.00
2022-12-08T06:58:13.958Z,1.20
2022-12-08T06:59:17.584Z,0.98
2022-12-08T07:00:19.996Z,1.48
2022-12-08T07:01:22.307Z,1.33
2022-12-08T07:02:24.613Z,1.13
2022-12-08T07:03:26.740Z,1.33
2022-12-08T07:04:28.900Z,1.55
2022-12-08T07:05:31.025Z,0.98
2022-12-08T07:06:33.133Z,1.10
2022-12-08T07:07:35.266Z,1.83
2022-12-08T07:08:37.364Z,1.60
2022-12-08T07:09:39.621Z,1.10
2022-12-08T07:10:41.853Z,1.27
2022-12-08T07:11:43.986Z,0.90
2022-12-08T07:12:46.111Z,1.20
2022-12-08T07:13:48.310Z,1.38
2022-12-08T07:14:50.438Z,1.10
2022-12-08T07:15:52.556Z,1.17
2022-12-08T07:16:54.799Z,1.77
2022-12-08T07:18:00.083Z,0.88
2022-12-08T07:19:02.678Z,1.10
2022-12-08T07:20:06.176Z,1.02
2022-12-08T07:21:11.712Z,1.23
2022-12-08T07:22:13.895Z,1.23
2022-12-08T07:23:15.985Z,1.15
2022-12-08T07:24:18.226Z,1.30
2022-12-08T07:25:21.069Z,1.70
2022-12-08T07:26:23.198Z,1.15
2022-12-08T07:27:25.320Z,1.38
2022-12-08T07:28:27.433Z,0.98
2022-12-08T07:29:29.557Z,1.27
2022-12-08T07:30:31.763Z,1.48
2022-12-08T07:31:34.020Z,1.20
2022-12-08T07:32:38.090Z,1.30
2022-12-08T07:33:40.264Z,1.40
2022-12-08T07:34:42.357Z,1.30
2022-12-08T07:35:49.189Z,1.45
2022-12-08T07:36:51.655Z,1.40
2022-12-08T07:37:53.778Z,1.77
2022-12-08T07:38:56.729Z,1.42
2022-12-08T07:39:58.852Z,2.00
2022-12-08T07:41:01.738Z,1.20
2022-12-08T07:42:03.921Z,1.50
2022-12-08T07:43:06.015Z,1.17
2022-12-08T07:44:08.930Z,2.20
2022-12-08T07:45:11.328Z,1.50
2022-12-08T07:46:15.143Z,1.70
2022-12-08T07:47:17.371Z,2.03
2022-12-08T07:48:19.713Z,1.50
2022-12-08T07:49:21.928Z,1.45
2022-12-08T07:50:24.052Z,1.65
2022-12-08T07:51:26.163Z,1.80
2022-12-08T07:52:28.289Z,1.25
2022-12-08T07:53:31.440Z,1.27
2022-12-08T07:54:33.616Z,1.95
2022-12-08T07:55:43.117Z,2.40
2022-12-08T07:56:45.604Z,4.13
2022-12-08T07:57:47.789Z,3.03
2022-12-08T07:58:50.480Z,2.45
2022-12-08T07:59:52.607Z,1.63
2022-12-08T08:00:54.935Z,1.80
2022-12-08T08:02:22.441Z,2.28
2022-12-08T08:03:19.429Z,1.55
2022-12-08T08:04:21.654Z,1.75
2022-12-08T08:05:23.858Z,1.63
2022-12-08T08:06:25.960Z,1.70
2022-12-08T08:07:30.293Z,1.88
2022-12-08T08:08:32.570Z,1.83
2022-12-08T08:09:34.742Z,1.83
2022-12-08T08:10:36.965Z,1.40
2022-12-08T08:11:39.211Z,1.88
2022-12-08T08:12:41.417Z,1.58
2022-12-08T08:13:43.620Z,1.60
2022-12-08T08:14:45.730Z,1.90
2022-12-08T08:15:47.912Z,1.70
2022-12-08T08:16:50.339Z,1.52
2022-12-08T08:17:52.555Z,1.80
2022-12-08T08:18:55.192Z,1.63
2022-12-08T08:19:57.480Z,1.60
2022-12-08T08:21:06.744Z,2.40
2022-12-08T08:22:21.846Z,1.55
2022-12-08T08:23:23.942Z,1.70
2022-12-08T08:24:26.190Z,1.40
2022-12-08T08:25:28.411Z,1.67
2022-12-08T08:26:30.513Z,2.17
2022-12-08T08:27:32.720Z,1.50
2022-12-08T08:28:35.206Z,1.90
2022-12-08T08:29:37.335Z,1.90
2022-12-08T08:30:39.730Z,1.38
2022-12-08T08:31:42.115Z,1.67
2022-12-08T08:32:44.872Z,2.03
2022-12-08T08:33:49.476Z,1.50
2022-12-08T08:34:51.819Z,1.75
2022-12-08T08:35:55.686Z,2.42
2022-12-08T08:36:57.897Z,2.40
2022-12-08T08:38:00.934Z,1.70
2022-12-08T08:39:04.358Z,2.05
2022-12-08T08:40:07.239Z,2.00
2022-12-08T08:41:11.021Z,1.85
2022-12-08T08:42:13.152Z,1.92
2022-12-08T08:43:34.366Z,2.20
2022-12-08T08:44:38.954Z,1.60
2022-12-08T08:45:41.090Z,1.85
2022-12-08T08:46:43.619Z,1.92
2022-12-08T08:47:46.985Z,1.88
2022-12-08T08:48:49.088Z,2.15
2022-12-08T08:49:51.233Z,3.42
2022-12-08T08:50:54.177Z,2.70
2022-12-08T08:51:56.294Z,2.15
2022-12-08T08:52:58.922Z,2.60
2022-12-08T08:54:01.052Z,2.33
2022-12-08T08:55:03.406Z,1.75
2022-12-08T08:56:12.964Z,1.70
2022-12-08T08:57:17.498Z,1.67
2022-12-08T08:58:23.097Z,2.70
2022-12-08T08:59:26.150Z,2.10
2022-12-08T09:00:28.308Z,1.60
2022-12-08T09:01:30.727Z,2.22
2022-12-08T09:02:32.961Z,1.55
2022-12-08T09:03:35.098Z,2.45
2022-12-08T09:04:37.468Z,1.80
2022-12-08T09:05:41.344Z,1.77
2022-12-08T09:06:45.173Z,2.00
2022-12-08T09:07:47.340Z,1.85
2022-12-08T09:08:49.609Z,1.75
2022-12-08T09:09:53.186Z,1.50
2022-12-08T09:10:58.486Z,1.35
2022-12-08T09:12:00.758Z,1.70
2022-12-08T09:13:03.452Z,1.35
2022-12-08T09:14:06.363Z,1.77
2022-12-08T09:15:08.734Z,1.38
2022-12-08T09:16:11.767Z,1.85
2022-12-08T09:17:13.961Z,1.60
2022-12-08T09:18:16.207Z,1.50
2022-12-08T09:19:18.368Z,1.85
2022-12-08T09:20:20.523Z,1.85
2022-12-08T09:21:25.873Z,1.65
2022-12-08T09:22:28.159Z,1.73
2022-12-08T09:23:35.176Z,1.60
2022-12-08T09:24:37.905Z,1.38
2022-12-08T09:25:40.035Z,1.80
2022-12-08T09:26:44.641Z,2.97
2022-12-08T09:27:46.801Z,1.95
2022-12-08T09:28:50.264Z,1.85
2022-12-08T09:29:52.380Z,1.92
2022-12-08T09:30:54.542Z,1.88
2022-12-08T09:31:56.767Z,1.65
2022-12-08T09:32:59.062Z,1.10
2022-12-08T09:34:01.289Z,0.90
2022-12-08T09:35:04.145Z,1.00
2022-12-08T09:36:07.312Z,0.55
2022-12-08T09:37:09.425Z,0.80
2022-12-08T09:38:13.823Z,0.50
2022-12-08T09:39:16.086Z,0.50
2022-12-08T09:40:21.125Z,0.38
2022-12-08T09:41:41.760Z,1.08
2022-12-08T09:43:20.796Z,0.40
2022-12-08T09:44:55.206Z,0.68
2022-12-08T09:45:58.518Z,0.45
2022-12-08T09:47:06.300Z,0.50
2022-12-08T09:48:22.853Z,0.40
2022-12-08T09:49:42.385Z,0.40
2022-12-08T09:50:53.654Z,0.50
2022-12-08T09:51:55.980Z,0.47
2022-12-08T09:53:14.353Z,0.52
2022-12-08T09:54:31.408Z,0.85
2022-12-08T09:55:51.052Z,0.40
2022-12-08T09:56:58.268Z,0.40
2022-12-08T09:58:03.116Z,0.50
2022-12-08T09:59:36.208Z,0.50
2022-12-08T10:00:38.986Z,0.43
2022-12-08T10:01:43.869Z,0.30
2022-12-08T10:02:47.322Z,0.45
2022-12-08T10:03:50.280Z,0.30
2022-12-08T10:04:56.255Z,0.40
2022-12-08T10:06:20.274Z,0.40
2022-12-08T10:07:37.387Z,0.68
2022-12-08T10:08:52.352Z,0.68
2022-12-08T10:10:22.363Z,0.63
2022-12-08T10:11:36.550Z,0.45
2022-12-08T10:13:00.466Z,0.52
2022-12-08T10:14:18.934Z,0.73
2022-12-08T10:15:52.195Z,0.40
2022-12-08T10:17:03.299Z,0.30
2022-12-08T10:18:13.970Z,1.05
2022-12-08T10:19:23.081Z,0.30
2022-12-08T10:20:35.881Z,0.60
2022-12-08T10:21:40.721Z,0.30
2022-12-08T10:22:46.269Z,0.30
2022-12-08T10:23:52.533Z,0.60
2022-12-08T10:25:01.161Z,0.40
2022-12-08T10:26:12.853Z,0.50
2022-12-08T10:27:15.142Z,0.40
2022-12-08T10:28:17.292Z,0.47
2022-12-08T10:29:19.446Z,0.30
2022-12-08T10:30:22.514Z,0.50
2022-12-08T10:31:25.587Z,0.60
2022-12-08T10:32:34.701Z,0.40
2022-12-08T10:33:36.852Z,0.30
2022-12-08T10:35:05.586Z,0.60
2022-12-08T10:36:10.261Z,0.60
2022-12-08T10:37:15.244Z,0.35
2022-12-08T10:38:30.857Z,0.50
2022-12-08T10:39:37.440Z,0.32
2022-12-08T10:40:45.469Z,0.40
2022-12-08T10:41:47.882Z,0.43
2022-12-08T10:42:56.381Z,0.28
2022-12-08T10:44:01.786Z,0.40
2022-12-08T10:45:09.460Z,0.70
2022-12-08T10:46:20.693Z,0.75
2022-12-08T10:47:25.983Z,0.68
2022-12-08T10:48:33.291Z,0.50
2022-12-08T10:49:36.060Z,0.40
2022-12-08T10:50:54.506Z,0.57
2022-12-08T10:51:57.812Z,0.82
2022-12-08T10:53:15.999Z,0.55
2022-12-08T10:54:29.228Z,0.40
2022-12-08T10:55:42.994Z,0.30
2022-12-08T10:56:54.784Z,0.60
2022-12-08T10:57:56.989Z,0.30
2022-12-08T10:59:17.522Z,0.50
2022-12-08T11:00:26.982Z,0.50
2022-12-08T11:01:36.367Z,0.30
2022-12-08T11:02:51.569Z,0.68
2022-12-08T11:04:02.529Z,0.55
2022-12-08T11:05:04.917Z,0.30
2022-12-08T11:06:16.343Z,0.30
2022-12-08T11:07:22.979Z,0.50
2022-12-08T11:08:27.849Z,0.50
2022-12-08T11:09:53.163Z,0.30
2022-12-08T11:10:55.502Z,0.50
2022-12-08T11:12:07.753Z,0.68
2022-12-08T11:13:21.825Z,0.47
2022-12-08T11:14:32.845Z,0.50
2022-12-08T11:16:42.767Z,0.80
2022-12-08T11:17:46.385Z,1.00
2022-12-08T11:18:57.241Z,0.98
2022-12-08T11:21:20.458Z,0.65
2022-12-08T11:22:51.849Z,0.90
2022-12-08T11:23:53.970Z,1.10
2022-12-08T11:25:08.075Z,0.82
2022-12-08T11:26:23.832Z,0.80
2022-12-08T11:27:26.525Z,0.70
2022-12-08T11:28:28.948Z,1.17
2022-12-08T11:29:33.410Z,0.40
2022-12-08T11:30:46.254Z,0.98
2022-12-08T11:31:57.501Z,1.17
2022-12-08T11:33:11.945Z,0.70
2022-12-08T11:34:22.552Z,0.80
2022-12-08T11:35:27.026Z,1.08
2022-12-08T11:36:31.948Z,1.50
2022-12-08T11:37:41.793Z,1.10
2022-12-08T11:38:47.728Z,0.80
2022-12-08T11:39:53.477Z,1.00
2022-12-08T11:41:16.913Z,0.93
2022-12-08T11:42:23.169Z,0.95
2022-12-08T11:43:34.349Z,0.80
2022-12-08T11:44:49.771Z,0.68
2022-12-08T11:45:58.868Z,1.40
2022-12-08T11:47:17.397Z,1.30
2022-12-08T11:48:41.358Z,0.60
2022-12-08T11:49:44.280Z,0.90
2022-12-08T11:51:05.036Z,0.90
2022-12-08T11:52:42.036Z,0.80
2022-12-08T11:54:22.709Z,1.50
2022-12-08T11:55:37.278Z,0.80
2022-12-08T11:56:45.960Z,0.80
2022-12-08T11:57:49.034Z,0.60
2022-12-08T11:58:59.255Z,0.60
2022-12-08T12:00:02.138Z,0.93
2022-12-08T12:01:21.195Z,0.60
2022-12-08T12:02:30.979Z,0.90
2022-12-08T12:03:41.705Z,0.60
2022-12-08T12:04:46.903Z,0.88
2022-12-08T12:06:38.103Z,0.82
2022-12-08T12:07:40.229Z,0.60
2022-12-08T12:08:45.582Z,0.57
2022-12-08T12:09:53.488Z,0.80
2022-12-08T12:12:19.222Z,0.93
2022-12-08T12:13:24.262Z,0.70
2022-12-08T12:14:31.987Z,1.00
2022-12-08T12:16:10.807Z,0.80
2022-12-08T12:17:40.356Z,0.80
2022-12-08T12:18:47.678Z,1.20
2022-12-08T12:19:51.377Z,0.50
2022-12-08T12:20:59.182Z,1.67
2022-12-08T12:22:13.876Z,0.52
2022-12-08T12:23:36.044Z,0.60
2022-12-08T12:24:39.344Z,0.50
2022-12-08T12:25:50.965Z,0.40
2022-12-08T12:27:08.169Z,0.50
2022-12-08T12:28:13.418Z,0.60
2022-12-08T12:29:26.014Z,0.50
2022-12-08T12:30:51.206Z,0.30
2022-12-08T12:32:00.485Z,0.60
2022-12-08T12:33:08.648Z,0.70
2022-12-08T12:34:30.084Z,0.80
2022-12-08T12:35:41.288Z,0.90
2022-12-08T12:36:52.268Z,0.93
2022-12-08T12:38:01.242Z,0.73
2022-12-08T12:39:06.252Z,0.88
2022-12-08T12:40:25.201Z,1.23
2022-12-08T12:41:45.429Z,0.80
2022-12-08T12:42:56.437Z,1.25
2022-12-08T12:44:27.939Z,0.80
2022-12-08T12:45:34.439Z,1.35
2022-12-08T12:46:48.813Z,0.80
2022-12-08T12:48:23.906Z,0.60
2022-12-08T12:49:41.010Z,1.20
2022-12-08T12:50:51.334Z,0.77
2022-12-08T12:51:56.255Z,0.80
2022-12-08T12:53:19.943Z,0.80
2022-12-08T12:54:25.135Z,0.65
2022-12-08T12:56:03.982Z,0.80
2022-12-08T12:57:08.732Z,1.10
2022-12-08T12:58:32.250Z,1.20
2022-12-08T12:59:55.828Z,0.75
2022-12-08T13:01:11.109Z,1.23
2022-12-08T13:02:34.268Z,0.80
2022-12-08T13:03:43.998Z,1.15
2022-12-08T13:05:01.809Z,0.98
2022-12-08T13:06:05.622Z,0.60
2022-12-08T13:07:09.071Z,0.47
2022-12-08T13:08:24.423Z,0.98
2022-12-08T13:09:37.091Z,0.50
2022-12-08T13:10:48.514Z,0.52
2022-12-08T13:11:55.252Z,0.77
2022-12-08T13:13:09.781Z,0.70
2022-12-08T13:14:27.029Z,0.85
2022-12-08T13:15:36.639Z,0.77
2022-12-08T13:16:39.642Z,0.60
2022-12-08T13:17:45.902Z,0.70
2022-12-08T13:18:56.155Z,0.80
2022-12-08T13:20:01.694Z,0.73
2022-12-08T13:21:15.947Z,0.90
2022-12-08T13:22:46.807Z,0.80
2022-12-08T13:24:14.364Z,0.82
2022-12-08T13:25:44.188Z,0.82
2022-12-08T13:26:51.212Z,0.68
2022-12-08T13:27:54.727Z,0.65
2022-12-08T13:29:03.718Z,0.35
2022-12-08T13:30:43.416Z,0.80
2022-12-08T13:31:53.166Z,0.70
2022-12-08T13:34:27.469Z,0.75
2022-12-08T13:35:30.380Z,1.20
2022-12-08T13:36:35.645Z,1.25
2022-12-08T13:37:54.953Z,0.50
2022-12-08T13:38:58.879Z,0.98
2022-12-08T13:40:24.075Z,0.55
2022-12-08T13:41:42.984Z,1.10
2022-12-08T13:43:02.307Z,0.55
2022-12-08T13:47:35.294Z,0.85
2022-12-08T13:51:24.001Z,1.00
2022-12-08T13:56:05.268Z,1.00
2022-12-08T13:57:32.813Z,1.05
2022-12-08T13:58:37.508Z,1.20
2022-12-08T13:59:45.001Z,1.42
2022-12-08T14:01:22.028Z,1.00
2022-12-08T14:02:37.855Z,1.00
2022-12-08T14:04:30.955Z,0.80
2022-12-08T14:05:34.574Z,1.00
2022-12-08T14:06:47.835Z,0.75
2022-12-08T14:07:53.366Z,1.08
2022-12-08T14:09:03.775Z,1.02
2022-12-08T14:10:19.520Z,0.70
2022-12-08T14:12:36.624Z,1.02
2022-12-08T14:13:38.811Z,1.25
2022-12-08T14:16:28.604Z,1.80
2022-12-08T14:17:30.797Z,1.75
2022-12-08T14:18:33.028Z,1.70
2022-12-08T14:19:35.625Z,1.67
2022-12-08T14:21:12.067Z,1.13
2022-12-08T14:22:15.375Z,1.25
2022-12-08T14:23:17.716Z,1.73
2022-12-08T14:24:22.072Z,1.73
2022-12-08T14:25:25.542Z,2.20
2022-12-08T14:26:32.636Z,1.80
2022-12-08T14:27:37.704Z,1.70
2022-12-08T14:28:44.768Z,1.65
2022-12-08T14:29:52.272Z,1.20
2022-12-08T14:30:55.772Z,1.20
2022-12-08T14:31:58.133Z,1.15
2022-12-08T14:33:03.352Z,1.35
2022-12-08T14:34:05.652Z,1.58
2022-12-08T14:35:08.172Z,1.33
2022-12-08T14:36:14.577Z,1.60
2022-12-08T14:37:16.807Z,2.65
2022-12-08T14:38:20.800Z,1.92
2022-12-08T14:39:23.389Z,1.80
2022-12-08T14:40:33.973Z,2.33
2022-12-08T14:41:36.168Z,1.88
2022-12-08T14:43:05.755Z,2.08
2022-12-08T14:44:24.187Z,3.35
2022-12-08T14:45:26.535Z,2.83
2022-12-08T14:46:29.137Z,3.33
2022-12-08T14:47:33.816Z,4.07
2022-12-08T14:48:38.598Z,3.65
2022-12-08T14:49:40.821Z,3.67
2022-12-08T14:50:54.431Z,3.30
2022-12-08T14:51:56.650Z,3.97
2022-12-08T14:52:59.176Z,3.83
2022-12-08T14:54:15.346Z,3.60
2022-12-08T14:55:17.682Z,2.20
2022-12-08T14:56:40.594Z,2.20
2022-12-08T14:57:43.029Z,2.22
2022-12-08T14:58:45.688Z,2.30
2022-12-08T14:59:48.766Z,2.28
2022-12-08T15:00:54.562Z,2.33
2022-12-08T15:02:08.730Z,1.73
2022-12-08T15:03:13.327Z,1.95
2022-12-08T15:04:20.275Z,2.55
2022-12-08T15:05:29.256Z,1.50
2022-12-08T15:06:31.692Z,1.67
2022-12-08T15:07:45.931Z,1.58
2022-12-08T15:08:54.737Z,2.03